Time;durP1;ratioP1;P1;durP2;ratioP2;P2;SDS_P1;SDS_P2;PMS_P1;PMS_P2;Temp;Humidity;BMP_temperature;BMP_pressure;BME280_temperature;BME280_humidity;BME280_pressure;Samples;Min_cycle;Max_cycle;Signal;HPM_P1;HPM_P2
2021/05/03 00:00:51;;;;;;;3.45;1.27;;;6.20;99.90;;;;;;13099461;22;20673;-47
2021/05/03 00:05:56;;;;;;;2.35;0.88;;;6.10;99.90;;;;;;13101214;22;20035;-47
2021/05/03 00:10:57;;;;;;;1.80;0.68;;;6.00;99.90;;;;;;13099451;22;20133;-47
2021/05/03 00:15:58;;;;;;;3.97;1.02;;;6.00;99.90;;;;;;13100049;22;20034;-47
2021/05/03 00:21:00;;;;;;;2.95;1.15;;;6.00;99.90;;;;;;13099189;22;20048;-47
2021/05/03 00:26:02;;;;;;;2.75;0.82;;;6.00;99.90;;;;;;13098572;22;19999;-47
2021/05/03 00:31:03;;;;;;;4.35;1.75;;;6.10;99.90;;;;;;13096457;22;20085;-47
2021/05/03 00:36:04;;;;;;;2.78;0.93;;;6.10;99.90;;;;;;13099331;22;20402;-47
2021/05/03 00:41:09;;;;;;;3.10;1.08;;;6.00;99.90;;;;;;13100802;22;20006;-47
2021/05/03 00:46:10;;;;;;;2.05;0.80;;;6.00;99.90;;;;;;13098894;22;20354;-47
2021/05/03 00:51:11;;;;;;;2.90;1.00;;;6.10;99.90;;;;;;13098643;22;20018;-47
2021/05/03 00:56:12;;;;;;;5.38;1.33;;;6.10;99.90;;;;;;13101362;22;20578;-47
2021/05/03 01:01:13;;;;;;;2.50;0.93;;;5.90;99.90;;;;;;13101494;22;20316;-47
2021/05/03 01:06:18;;;;;;;2.58;1.08;;;5.90;99.90;;;;;;13099819;22;20029;-47
2021/05/03 01:11:18;;;;;;;3.40;1.30;;;5.80;99.90;;;;;;13099924;22;20011;-47
2021/05/03 01:16:19;;;;;;;4.13;1.40;;;5.80;99.90;;;;;;13099731;22;20007;-47
2021/05/03 01:21:27;;;;;;;2.60;0.95;;;5.70;99.90;;;;;;13098999;22;20239;-47
2021/05/03 01:26:27;;;;;;;3.83;1.63;;;5.70;99.90;;;;;;13100151;22;20002;-47
2021/05/03 01:31:28;;;;;;;3.05;1.50;;;5.70;99.90;;;;;;13098992;22;20015;-47
2021/05/03 01:36:29;;;;;;;2.53;0.98;;;5.70;99.90;;;;;;13099556;22;20017;-47
2021/05/03 01:41:29;;;;;;;6.65;1.75;;;5.70;99.90;;;;;;13098485;22;20330;-47
2021/05/03 01:46:33;;;;;;;5.00;1.52;;;5.60;99.90;;;;;;13099193;22;20038;-47
2021/05/03 01:51:36;;;;;;;4.72;1.23;;;5.50;99.90;;;;;;13099270;22;20372;-47
2021/05/03 01:56:37;;;;;;;2.45;0.95;;;5.50;99.90;;;;;;13100995;22;20013;-47
2021/05/03 02:01:39;;;;;;;3.55;1.67;;;5.50;99.90;;;;;;13096931;22;20006;-47
2021/05/03 02:06:39;;;;;;;2.97;1.30;;;5.60;99.90;;;;;;13102490;22;19999;-47
2021/05/03 02:11:40;;;;;;;3.80;1.27;;;5.60;99.90;;;;;;13104998;22;20030;-47
2021/05/03 02:16:43;;;;;;;4.28;1.50;;;5.50;99.90;;;;;;13101478;22;20007;-47
2021/05/03 02:21:43;;;;;;;5.45;1.63;;;5.40;99.90;;;;;;13099380;22;20487;-47
2021/05/03 02:26:46;;;;;;;3.95;1.50;;;5.50;99.90;;;;;;13101315;22;20010;-47
2021/05/03 02:31:47;;;;;;;3.88;1.67;;;5.50;99.90;;;;;;13098478;22;20377;-47
2021/05/03 02:36:48;;;;;;;4.70;1.83;;;5.50;99.90;;;;;;13101055;22;20037;-47
2021/05/03 02:41:49;;;;;;;5.72;2.63;;;5.50;99.90;;;;;;13101636;22;20006;-47
2021/05/03 02:46:49;;;;;;;5.38;2.42;;;5.60;99.90;;;;;;13098995;22;20019;-47
2021/05/03 02:51:50;;;;;;;5.40;2.58;;;5.60;99.90;;;;;;13098964;22;20338;-47
2021/05/03 02:56:53;;;;;;;5.93;1.92;;;5.60;99.90;;;;;;13099326;22;20010;-47
2021/05/03 03:01:54;;;;;;;5.55;2.70;;;5.60;99.90;;;;;;13098857;22;20005;-47
2021/05/03 03:06:55;;;;;;;12.57;2.42;;;5.90;99.90;;;;;;13098948;22;20404;-47
2021/05/03 03:11:58;;;;;;;5.05;2.20;;;5.80;99.90;;;;;;13099532;22;20026;-47
2021/05/03 03:16:59;;;;;;;9.30;2.67;;;5.80;99.90;;;;;;13097380;22;20247;-47
2021/05/03 03:21:59;;;;;;;12.15;2.95;;;5.80;99.90;;;;;;13098084;22;20458;-47
2021/05/03 03:27:01;;;;;;;6.22;2.72;;;5.90;99.90;;;;;;13098237;22;20014;-47
2021/05/03 03:32:01;;;;;;;6.80;2.83;;;5.90;99.90;;;;;;13094374;22;20035;-47
2021/05/03 03:37:02;;;;;;;7.20;2.92;;;5.90;99.90;;;;;;13097997;22;20064;-47
2021/05/03 03:42:03;;;;;;;10.50;2.97;;;6.00;99.90;;;;;;13098777;22;20015;-47
2021/05/03 03:47:03;;;;;;;6.90;3.15;;;5.90;99.90;;;;;;13096065;22;20056;-47
2021/05/03 03:52:04;;;;;;;5.43;1.77;;;5.80;99.90;;;;;;13096840;22;20011;-47
2021/05/03 03:57:05;;;;;;;7.65;2.88;;;5.90;99.90;;;;;;13097002;22;20010;-47
2021/05/03 04:02:07;;;;;;;8.70;3.63;;;5.80;99.90;;;;;;13096528;22;20049;-47
2021/05/03 04:12:27;;;;;;;12.75;3.33;;;5.80;99.90;;;;;;13098645;22;20394;-47
2021/05/03 04:27:48;;;;;;;10.90;3.72;;;6.10;99.90;;;;;;13101733;22;20007;-47
2021/05/03 04:32:49;;;;;;;6.85;2.97;;;6.10;99.90;;;;;;13101654;22;20010;-47
2021/05/03 04:37:49;;;;;;;8.13;3.28;;;6.10;99.90;;;;;;13103057;22;20441;-47
2021/05/03 04:42:50;;;;;;;8.73;3.10;;;6.20;99.90;;;;;;13102228;22;20068;-81
2021/05/03 04:47:51;;;;;;;8.38;2.95;;;6.00;99.90;;;;;;13068975;22;20536;-80
2021/05/03 04:52:52;;;;;;;9.23;2.78;;;6.20;99.90;;;;;;13093575;22;20063;-81
2021/05/03 04:57:53;;;;;;;12.30;3.03;;;6.20;99.90;;;;;;13092063;22;20006;-80
2021/05/03 05:02:54;;;;;;;10.68;3.08;;;6.30;99.90;;;;;;13139664;22;20010;-81
2021/05/03 05:07:55;;;;;;;7.15;3.00;;;6.30;99.90;;;;;;13116174;22;20013;-81
2021/05/03 05:12:56;;;;;;;5.38;2.65;;;6.30;99.90;;;;;;13142568;22;20033;-81
2021/05/03 05:18:00;;;;;;;14.18;2.75;;;6.30;99.90;;;;;;13122932;22;20011;-81
2021/05/03 05:23:04;;;;;;;6.35;3.15;;;6.40;99.90;;;;;;13120235;22;20062;-81
2021/05/03 05:28:05;;;;;;;6.85;3.75;;;6.40;99.90;;;;;;13117570;22;19999;-80
2021/05/03 05:33:06;;;;;;;7.82;3.10;;;6.40;99.90;;;;;;13095635;22;20041;-80
2021/05/03 05:38:29;;;;;;;6.03;2.60;;;6.40;99.90;;;;;;13092743;22;20014;-81
2021/05/03 05:43:30;;;;;;;6.22;2.83;;;6.40;99.90;;;;;;13129713;22;20567;-81
2021/05/03 05:48:31;;;;;;;7.90;3.30;;;6.50;99.90;;;;;;13102360;22;20037;-81
2021/05/03 05:53:33;;;;;;;6.20;2.55;;;6.60;99.90;;;;;;13091812;22;20107;-80
2021/05/03 05:58:34;;;;;;;9.40;2.60;;;6.60;99.90;;;;;;13110398;22;20017;-80
2021/05/03 06:03:34;;;;;;;5.35;2.78;;;6.60;99.90;;;;;;13116944;22;20427;-81
2021/05/03 06:08:35;;;;;;;5.80;2.60;;;6.70;99.90;;;;;;13101948;22;20003;-81
2021/05/03 06:13:46;;;;;;;8.13;2.40;;;6.70;99.90;;;;;;13121079;22;20003;-80
2021/05/03 06:18:55;;;;;;;7.53;2.80;;;6.70;99.90;;;;;;13120845;22;20018;-80
2021/05/03 06:23:58;;;;;;;6.50;3.15;;;6.70;99.90;;;;;;13126598;22;20022;-81
2021/05/03 06:29:03;;;;;;;6.40;2.40;;;6.80;99.90;;;;;;13124384;22;20041;-81
2021/05/03 06:34:13;;;;;;;6.55;2.95;;;7.00;99.90;;;;;;13123793;22;20085;-80
2021/05/03 06:39:20;;;;;;;7.82;2.80;;;7.00;99.90;;;;;;13115010;22;20040;-81
2021/05/03 06:44:21;;;;;;;9.82;3.35;;;7.30;99.90;;;;;;13091481;22;20023;-83
2021/05/03 06:49:31;;;;;;;7.20;3.45;;;7.30;99.90;;;;;;13128798;22;19987;-80
2021/05/03 06:54:34;;;;;;;7.68;2.88;;;7.60;99.90;;;;;;13128292;22;20033;-80
2021/05/03 06:59:42;;;;;;;8.57;3.58;;;7.60;99.90;;;;;;13099449;22;20214;-82
2021/05/03 07:04:45;;;;;;;12.27;3.78;;;7.90;99.90;;;;;;13101376;22;20015;-82
2021/05/03 07:09:47;;;;;;;10.45;5.00;;;8.00;99.90;;;;;;13105247;22;20007;-82
2021/05/03 07:14:49;;;;;;;10.57;4.47;;;8.30;99.90;;;;;;13101605;22;19999;-82
2021/05/03 07:19:50;;;;;;;11.68;4.43;;;8.40;99.90;;;;;;13102865;22;20037;-82
2021/05/03 07:24:51;;;;;;;12.40;5.75;;;8.50;99.90;;;;;;13103362;22;20022;-82
2021/05/03 07:29:51;;;;;;;14.00;5.68;;;8.70;99.90;;;;;;13099114;22;20371;-46
2021/05/03 07:34:52;;;;;;;12.05;6.68;;;9.00;99.90;;;;;;13096129;22;20014;-46
2021/05/03 07:39:53;;;;;;;19.98;7.95;;;9.30;99.90;;;;;;13095411;22;20003;-46
2021/05/03 07:44:53;;;;;;;23.05;7.35;;;9.40;99.90;;;;;;13096262;22;19999;-46
2021/05/03 07:49:54;;;;;;;20.98;9.40;;;9.70;99.90;;;;;;13092609;22;20002;-46
2021/05/03 07:54:55;;;;;;;18.08;8.63;;;10.00;99.90;;;;;;13097263;22;20006;-46
2021/05/03 07:59:55;;;;;;;14.20;6.68;;;10.30;99.90;;;;;;13093201;22;20431;-45
2021/05/03 08:04:56;;;;;;;23.38;8.95;;;10.30;99.90;;;;;;13095921;22;20011;-46
2021/05/03 08:09:57;;;;;;;19.20;9.23;;;10.50;99.90;;;;;;13096006;22;20456;-45
2021/05/03 08:14:59;;;;;;;17.70;8.10;;;10.60;99.90;;;;;;13097305;22;20007;-46
2021/05/03 08:20:00;;;;;;;22.33;9.07;;;10.80;99.90;;;;;;13097422;22;20793;-46
2021/05/03 08:25:00;;;;;;;18.52;8.18;;;11.00;99.90;;;;;;13097318;22;20046;-46
2021/05/03 08:30:03;;;;;;;18.60;8.98;;;11.00;99.90;;;;;;13095747;22;20022;-46
2021/05/03 08:35:05;;;;;;;24.35;9.95;;;11.40;99.90;;;;;;13095513;22;20026;-46
2021/05/03 08:40:06;;;;;;;18.10;7.60;;;11.50;99.90;;;;;;13096713;22;20045;-46
2021/05/03 08:45:08;;;;;;;18.33;8.38;;;11.50;99.90;;;;;;13096751;22;20007;-46
2021/05/03 08:50:15;;;;;;;19.30;7.97;;;11.50;99.90;;;;;;13093268;22;20009;-46
2021/05/03 08:55:16;;;;;;;19.92;8.38;;;11.60;99.90;;;;;;13098120;22;20003;-46
2021/05/03 09:00:17;;;;;;;20.48;9.32;;;11.60;99.90;;;;;;13097481;22;20042;-46
2021/05/03 09:05:18;;;;;;;21.60;9.52;;;11.70;99.90;;;;;;13100636;22;20038;-46
2021/05/03 09:10:21;;;;;;;22.00;8.30;;;12.00;99.90;;;;;;13100735;22;20007;-46
2021/05/03 09:15:24;;;;;;;22.50;8.75;;;12.00;99.90;;;;;;13101739;22;20007;-46
2021/05/03 09:20:26;;;;;;;22.08;8.60;;;11.90;99.90;;;;;;13103751;22;20078;-46
2021/05/03 09:25:52;;;;;;;15.35;7.32;;;12.10;99.90;;;;;;13101892;22;20007;-46
2021/05/03 09:30:56;;;;;;;17.58;7.82;;;12.60;99.90;;;;;;13103393;22;20023;-46
2021/05/03 09:35:59;;;;;;;17.90;8.13;;;12.80;99.90;;;;;;13076255;22;20438;-48
2021/05/03 09:41:13;;;;;;;22.48;7.93;;;12.70;99.90;;;;;;13101833;22;20480;-46
2021/05/03 09:46:39;;;;;;;15.45;7.18;;;12.60;99.90;;;;;;13102083;22;20085;-46
2021/05/03 09:51:43;;;;;;;15.85;7.85;;;12.90;99.90;;;;;;13103311;22;20017;-46
2021/05/03 09:57:03;;;;;;;13.68;5.63;;;13.10;99.90;;;;;;13103616;22;20487;-46
2021/05/03 10:08:25;;;;;;;;;;;13.30;99.90;;;;;;13089103;22;20092;-47
2021/05/03 10:13:28;;;;;;;11.60;5.70;;;13.40;99.90;;;;;;13102988;22;19963;-46
2021/05/03 10:18:31;;;;;;;14.93;5.82;;;13.60;99.90;;;;;;13100498;22;20080;-46
2021/05/03 10:23:32;;;;;;;11.82;5.55;;;13.50;99.90;;;;;;13104994;22;20006;-46
2021/05/03 10:28:52;;;;;;;11.30;5.57;;;13.80;99.90;;;;;;13099452;22;20007;-46
2021/05/03 10:33:53;;;;;;;9.02;4.32;;;14.40;99.90;;;;;;13100486;22;20011;-46
2021/05/03 10:38:54;;;;;;;10.50;4.45;;;14.20;99.90;;;;;;13104573;22;20015;-46
2021/05/03 10:44:21;;;;;;;11.30;4.93;;;14.20;99.90;;;;;;13098679;22;20085;-46
2021/05/03 10:49:34;;;;;;;8.05;3.60;;;13.90;99.90;;;;;;13096063;22;20024;-46
2021/05/03 10:54:44;;;;;;;8.88;3.83;;;13.40;99.90;;;;;;13101422;22;20007;-46
2021/05/03 10:59:46;;;;;;;8.05;3.33;;;13.10;99.90;;;;;;13096581;22;20010;-46
2021/05/03 11:05:10;;;;;;;8.00;3.17;;;12.90;99.90;;;;;;13098206;22;20014;-46
2021/05/03 11:10:11;;;;;;;13.50;3.30;;;12.90;99.90;;;;;;13099214;22;20007;-46
2021/05/03 11:15:22;;;;;;;8.10;4.07;;;13.00;99.90;;;;;;13097401;22;20188;-46
2021/05/03 11:20:23;;;;;;;5.22;2.33;;;13.50;99.90;;;;;;13097242;22;20365;-46
2021/05/03 11:25:28;;;;;;;5.82;2.85;;;14.10;99.90;;;;;;13098150;22;20007;-46
2021/05/03 11:30:38;;;;;;;9.13;3.88;;;14.30;99.90;;;;;;13097458;22;20011;-46
2021/05/03 11:45:51;;;;;;;;;;;13.50;99.90;;;;;;13097602;22;20006;-46
2021/05/03 11:51:05;;;;;;;9.05;3.08;;;13.00;99.90;;;;;;13100267;22;19913;-45
2021/05/03 11:56:25;;;;;;;6.00;2.60;;;13.00;99.90;;;;;;13097538;22;20007;-46
2021/05/03 12:01:27;;;;;;;7.72;3.20;;;13.80;99.90;;;;;;13095685;22;20033;-46
2021/05/03 12:06:42;;;;;;;6.05;2.60;;;13.70;99.90;;;;;;13096971;22;20481;-46
2021/05/03 12:11:58;;;;;;;7.03;3.30;;;13.80;99.90;;;;;;13097739;22;20428;-46
2021/05/03 12:16:59;;;;;;;6.18;2.85;;;13.50;99.90;;;;;;13097203;22;20010;-46
2021/05/03 12:22:00;;;;;;;9.35;2.90;;;14.10;99.90;;;;;;13099527;22;20311;-46
2021/05/03 12:27:01;;;;;;;6.18;2.97;;;14.00;99.90;;;;;;13097050;22;20362;-46
2021/05/03 12:32:07;;;;;;;6.65;3.00;;;14.10;99.90;;;;;;13097182;22;20014;-46
2021/05/03 12:37:15;;;;;;;5.50;2.40;;;13.80;99.90;;;;;;13099007;22;20045;-46
2021/05/03 12:42:17;;;;;;;6.60;3.78;;;14.30;99.90;;;;;;13097145;22;20007;-46
2021/05/03 12:52:56;;;;;;;9.68;4.30;;;14.90;99.90;;;;;;13104546;22;20007;-46
2021/05/03 12:58:10;;;;;;;8.57;5.00;;;14.60;99.90;;;;;;13098530;22;20037;-46
2021/05/03 13:03:15;;;;;;;7.68;4.22;;;14.70;99.90;;;;;;13100918;22;20426;-46
2021/05/03 13:29:44;;;;;;;12.20;4.30;;;14.00;99.90;;;;;;13101630;22;20007;-45
2021/05/03 13:34:45;;;;;;;10.52;3.63;;;13.60;99.90;;;;;;13101909;22;20350;-45
2021/05/03 13:39:46;;;;;;;8.57;3.65;;;13.70;99.90;;;;;;13101435;22;20085;-46
2021/05/03 13:44:47;;;;;;;6.25;3.40;;;14.40;99.90;;;;;;13100328;22;20113;-46
2021/05/03 13:49:47;;;;;;;7.15;3.67;;;15.10;99.90;;;;;;13101411;22;20438;-46
2021/05/03 13:54:48;;;;;;;8.27;3.38;;;15.10;99.90;;;;;;13107429;22;20330;-46
2021/05/03 13:59:49;;;;;;;6.00;2.95;;;14.90;99.20;;;;;;13102098;22;20060;-46
2021/05/03 14:04:49;;;;;;;9.98;3.60;;;15.00;99.90;;;;;;13101816;22;20026;-46
2021/05/03 14:09:50;;;;;;;5.40;2.67;;;15.20;96.60;;;;;;13103011;22;20038;-46
2021/05/03 14:14:51;;;;;;;7.07;3.63;;;15.00;96.30;;;;;;13102367;22;20011;-46
2021/05/03 14:19:52;;;;;;;6.63;3.42;;;14.60;95.90;;;;;;13099847;22;20041;-46
2021/05/03 14:24:52;;;;;;;7.47;3.08;;;14.40;95.70;;;;;;13100582;22;20368;-46
2021/05/03 14:29:57;;;;;;;8.15;3.50;;;14.30;97.60;;;;;;13102767;22;20066;-46
2021/05/03 14:35:05;;;;;;;8.25;3.92;;;14.60;97.60;;;;;;13102211;22;20011;-46
2021/05/03 14:40:07;;;;;;;6.35;3.08;;;14.60;97.80;;;;;;13101508;22;20011;-46
2021/05/03 14:45:10;;;;;;;7.32;3.70;;;14.50;98.50;;;;;;13101719;22;20021;-46
2021/05/03 14:55:33;;;;;;;7.75;2.92;;;14.50;98.40;;;;;;13106057;22;20655;-46
2021/05/03 15:00:34;;;;;;;12.95;3.58;;;14.30;97.60;;;;;;13102381;22;20018;-46
2021/05/03 15:05:39;;;;;;;8.98;3.78;;;14.20;97.50;;;;;;13100580;22;20027;-46
2021/05/03 15:10:42;;;;;;;6.55;3.08;;;14.20;98.70;;;;;;13101159;22;20427;-46
2021/05/03 15:15:47;;;;;;;7.50;3.55;;;14.30;97.20;;;;;;13099357;22;20014;-46
2021/05/03 15:26:11;;;;;;;4.97;2.60;;;14.40;95.50;;;;;;13099700;22;20091;-46
2021/05/03 15:36:31;;;;;;;5.60;2.60;;;14.30;93.60;;;;;;13100677;22;20528;-45
2021/05/03 15:41:32;;;;;;;4.30;2.30;;;14.20;94.00;;;;;;13099910;22;20015;-45
2021/05/03 15:46:34;;;;;;;6.85;2.45;;;14.40;93.90;;;;;;13099465;22;20002;-46
2021/05/03 15:51:40;;;;;;;7.15;2.83;;;14.50;92.70;;;;;;13101622;22;20015;-46
2021/05/03 15:56:41;;;;;;;6.07;2.30;;;14.50;93.80;;;;;;13076039;22;20003;-46
2021/05/03 16:01:42;;;;;;;5.72;2.40;;;14.60;95.40;;;;;;13090644;22;20015;-46
2021/05/03 16:06:42;;;;;;;6.40;3.03;;;14.60;93.90;;;;;;13095992;22;20042;-45
2021/05/03 16:11:44;;;;;;;5.95;2.55;;;14.40;91.80;;;;;;13098252;22;20013;-46
2021/05/03 16:16:46;;;;;;;6.28;2.55;;;14.20;92.60;;;;;;13058975;22;20031;-46
2021/05/03 16:21:47;;;;;;;5.82;2.53;;;14.20;94.20;;;;;;13097245;22;20408;-46
2021/05/03 16:26:47;;;;;;;5.35;2.50;;;14.20;95.50;;;;;;13100555;22;20007;-46
2021/05/03 16:31:48;;;;;;;6.55;2.92;;;14.20;94.50;;;;;;13074646;22;20007;-46
2021/05/03 16:36:50;;;;;;;5.32;2.58;;;14.20;94.10;;;;;;13097196;22;20088;-46
2021/05/03 16:41:50;;;;;;;4.53;1.98;;;14.20;94.40;;;;;;13095156;22;19999;-45
2021/05/03 16:46:51;;;;;;;5.07;2.45;;;14.00;95.10;;;;;;13099068;22;20033;-46
2021/05/03 16:52:11;;;;;;;5.28;2.58;;;14.00;95.20;;;;;;13099867;22;20018;-46
2021/05/03 16:57:11;;;;;;;4.53;2.20;;;14.00;95.40;;;;;;13097836;22;20007;-46
2021/05/03 17:02:12;;;;;;;5.15;1.77;;;13.90;95.70;;;;;;13069329;22;20376;-46
2021/05/03 17:07:13;;;;;;;4.13;2.30;;;13.80;95.70;;;;;;13099125;22;20105;-46
2021/05/03 17:12:14;;;;;;;3.20;1.60;;;13.70;95.20;;;;;;13070514;22;20442;-46
2021/05/03 17:17:14;;;;;;;5.13;1.85;;;13.60;94.90;;;;;;13095902;22;20430;-46
2021/05/03 17:22:15;;;;;;;4.38;2.35;;;13.60;95.60;;;;;;13095331;22;20013;-45
2021/05/03 17:27:16;;;;;;;4.95;2.05;;;13.60;95.00;;;;;;13096516;22;20065;-45
2021/05/03 17:32:17;;;;;;;3.55;1.63;;;13.60;95.70;;;;;;13096613;22;20035;-45
2021/05/03 17:37:17;;;;;;;3.47;1.85;;;13.60;96.00;;;;;;13098369;22;20045;-45
2021/05/03 17:42:18;;;;;;;7.00;2.75;;;13.50;96.10;;;;;;13097919;22;20025;-46
2021/05/03 17:47:19;;;;;;;3.63;1.73;;;13.40;95.90;;;;;;13099666;22;20014;-45
2021/05/03 17:52:19;;;;;;;5.60;2.63;;;13.30;97.70;;;;;;13102317;22;20418;-46
2021/05/03 17:57:20;;;;;;;4.82;2.33;;;13.40;96.80;;;;;;13094513;22;20013;-45
2021/05/03 18:02:21;;;;;;;7.32;2.60;;;13.40;97.80;;;;;;13093474;22;20010;-45
2021/05/03 18:07:22;;;;;;;4.75;2.10;;;13.20;97.80;;;;;;13097730;22;20023;-45
2021/05/03 18:12:24;;;;;;;4.78;2.28;;;13.10;98.90;;;;;;13098236;22;20010;-45
2021/05/03 18:17:24;;;;;;;5.65;3.05;;;13.20;98.70;;;;;;13096295;22;20006;-46
2021/05/03 18:22:25;;;;;;;4.47;1.75;;;13.10;98.40;;;;;;13096384;22;20014;-45
2021/05/03 18:27:26;;;;;;;4.65;2.35;;;13.10;98.30;;;;;;13086972;22;20011;-45
2021/05/03 18:32:27;;;;;;;5.00;2.13;;;13.20;98.20;;;;;;13061647;22;20307;-46
2021/05/03 18:37:28;;;;;;;5.00;2.42;;;13.10;97.80;;;;;;13094425;22;20064;-45
2021/05/03 18:42:28;;;;;;;3.67;1.70;;;13.00;97.60;;;;;;13089246;22;20308;-46
2021/05/03 18:47:29;;;;;;;4.63;2.03;;;12.90;98.60;;;;;;13095349;22;20006;-45
2021/05/03 18:52:30;;;;;;;5.45;2.45;;;12.80;98.80;;;;;;13093335;22;20007;-45
2021/05/03 18:57:30;;;;;;;3.90;1.98;;;12.90;99.30;;;;;;13088106;22;20011;-46
2021/05/03 19:02:31;;;;;;;3.83;2.00;;;12.80;98.50;;;;;;13080644;22;20010;-46
2021/05/03 19:07:33;;;;;;;4.50;2.15;;;12.80;99.30;;;;;;13083262;22;20065;-45
2021/05/03 19:12:36;;;;;;;4.18;2.05;;;12.80;99.00;;;;;;13040911;22;20633;-45
2021/05/03 19:17:40;;;;;;;3.67;1.65;;;12.70;99.50;;;;;;13079932;22;20013;-45
2021/05/03 19:22:41;;;;;;;3.00;1.40;;;12.70;98.90;;;;;;13080790;22;20492;-45
2021/05/03 19:27:42;;;;;;;5.53;2.60;;;12.70;99.20;;;;;;13081492;22;20007;-45
2021/05/03 19:32:43;;;;;;;2.60;1.30;;;12.70;99.30;;;;;;13076182;22;20089;-45
2021/05/03 19:37:45;;;;;;;4.15;1.60;;;12.70;99.40;;;;;;13086177;22;20193;-45
2021/05/03 19:42:46;;;;;;;4.20;2.17;;;12.80;99.30;;;;;;13086176;22;20011;-45
2021/05/03 19:47:47;;;;;;;4.13;2.10;;;12.80;99.90;;;;;;13084539;22;20334;-45
2021/05/03 20:03:39;;;;;;;;;;;12.80;99.70;;;;;;13082128;22;20022;-45
2021/05/03 20:08:41;;;;;;;2.85;1.40;;;12.80;99.90;;;;;;13081726;22;20273;-45
2021/05/03 20:13:42;;;;;;;4.47;2.10;;;12.80;99.90;;;;;;13082683;22;20060;-45
2021/05/03 20:18:43;;;;;;;3.83;2.03;;;12.70;99.90;;;;;;13081716;22;20025;-45
2021/05/03 20:23:43;;;;;;;7.63;2.53;;;12.70;99.90;;;;;;13082744;22;20143;-45
2021/05/03 20:28:44;;;;;;;7.00;2.60;;;12.80;99.90;;;;;;13080900;22;20018;-45
2021/05/03 20:33:53;;;;;;;5.28;2.38;;;12.70;99.90;;;;;;13084177;22;20877;-45
2021/05/03 20:44:00;;;;;;;9.27;2.10;;;12.70;99.90;;;;;;13094078;22;20007;-45
2021/05/03 20:49:01;;;;;;;5.57;3.05;;;12.70;99.90;;;;;;13093763;22;20721;-45
2021/05/03 20:54:02;;;;;;;5.30;2.40;;;12.80;99.90;;;;;;13097591;22;20026;-45
2021/05/03 20:59:03;;;;;;;32.08;3.47;;;12.70;99.90;;;;;;13093917;22;20121;-45
2021/05/03 21:04:03;;;;;;;7.57;2.78;;;12.80;99.90;;;;;;13094599;22;20010;-45
2021/05/03 21:09:04;;;;;;;7.15;2.47;;;12.70;99.70;;;;;;13098428;22;20097;-45
2021/05/03 21:14:05;;;;;;;6.20;3.00;;;12.70;99.80;;;;;;13100140;22;20206;-44
2021/05/03 21:19:06;;;;;;;6.47;2.65;;;12.70;99.80;;;;;;13098094;22;20010;-45
2021/05/03 21:24:07;;;;;;;6.47;2.20;;;12.70;99.90;;;;;;13100177;22;20017;-45
2021/05/03 21:29:08;;;;;;;5.00;1.92;;;12.70;99.90;;;;;;13096784;22;20007;-45
2021/05/03 21:34:11;;;;;;;6.10;2.22;;;12.70;99.50;;;;;;13093175;22;20367;-44
2021/05/03 21:39:11;;;;;;;4.85;2.35;;;12.70;99.80;;;;;;13100488;22;20003;-45
2021/05/03 21:44:12;;;;;;;4.88;2.47;;;12.70;99.30;;;;;;13098924;22;20002;-45
2021/05/03 21:49:13;;;;;;;6.55;3.05;;;12.70;99.70;;;;;;13097081;22;20011;-45
2021/05/03 21:54:13;;;;;;;5.95;2.45;;;12.70;99.50;;;;;;13099935;22;20038;-45
2021/05/03 21:59:14;;;;;;;6.68;2.40;;;12.60;99.90;;;;;;13096310;22;20784;-45
2021/05/03 22:04:15;;;;;;;5.78;3.05;;;12.70;99.30;;;;;;13096934;22;20010;-44
2021/05/03 22:09:16;;;;;;;5.88;2.40;;;12.60;99.20;;;;;;13095465;22;20026;-45
2021/05/03 22:14:17;;;;;;;4.28;2.15;;;12.70;99.60;;;;;;13098531;22;20318;-45
2021/05/03 22:19:25;;;;;;;5.25;2.40;;;12.70;99.70;;;;;;13093740;22;20014;-45
2021/05/03 22:24:41;;;;;;;4.47;3.03;;;12.70;99.30;;;;;;13096149;22;20064;-45
2021/05/03 22:29:42;;;;;;;6.38;2.40;;;12.70;98.90;;;;;;13095610;22;20533;-45
2021/05/03 22:34:43;;;;;;;4.35;1.80;;;12.70;99.10;;;;;;13094792;22;20011;-45
2021/05/03 22:45:34;;;;;;;6.60;2.30;;;12.80;99.10;;;;;;13095733;22;20011;-45
2021/05/03 23:07:04;;;;;;;11.02;1.90;;;12.80;99.40;;;;;;13094183;22;20049;-45
2021/05/03 23:22:09;;;;;;;;;;;12.70;99.90;;;;;;13095177;22;20063;-45
2021/05/03 23:27:10;;;;;;;3.67;1.55;;;12.50;99.90;;;;;;13096895;22;20381;-45
2021/05/03 23:32:11;;;;;;;4.45;1.20;;;12.30;99.90;;;;;;13096844;22;20017;-45
2021/05/03 23:37:11;;;;;;;3.67;1.13;;;11.90;99.90;;;;;;13101933;22;20014;-45
2021/05/03 23:42:25;;;;;;;2.13;0.88;;;11.60;99.90;;;;;;13105691;22;20053;-45
